Terminal Aerodrome Forecast
Issued by NWS

Home | Current Version | Previous Version | Graphics & Text | Print | Product List | Glossary On
Versions: 1 2 3 4 5 6 7 8 9 10 11 12 13 14 15 16 17 18 19 20 21 22 23
000
FTUS43 KICT 051122
TAFRSL
TAF
KRSL 051122Z 0512/0612 15010KT P6SM BKN050 OVC150
     FM051500 17017G24KT P6SM SCT035 BKN100
     FM052200 17015G22KT P6SM VCTS SCT040CB BKN080
     FM060200 17013KT P6SM VCTS BKN035CB=

USA.gov is the U.S. government's official web portal to all federal, state and local government web resources and services.